sensor_id;sensor_type;location;lat;lon;timestamp;temperature;humidity
42885;DHT22;28534;48.100;11.584;2022-12-29T00:02:36;20.50;66.20
42885;DHT22;28534;48.100;11.584;2022-12-29T00:07:39;20.50;66.20
42885;DHT22;28534;48.100;11.584;2022-12-29T00:12:41;20.50;66.20
42885;DHT22;28534;48.100;11.584;2022-12-29T00:18:00;20.50;67.10
42885;DHT22;28534;48.100;11.584;2022-12-29T00:23:03;20.50;66.20
42885;DHT22;28534;48.100;11.584;2022-12-29T00:28:23;20.50;66.20
42885;DHT22;28534;48.100;11.584;2022-12-29T00:33:42;20.50;66.30
42885;DHT22;28534;48.100;11.584;2022-12-29T00:39:06;20.40;66.20
42885;DHT22;28534;48.100;11.584;2022-12-29T00:44:28;20.50;66.20
42885;DHT22;28534;48.100;11.584;2022-12-29T00:49:30;20.40;66.20
42885;DHT22;28534;48.100;11.584;2022-12-29T00:54:34;20.40;66.20
42885;DHT22;28534;48.100;11.584;2022-12-29T00:59:37;20.40;66.30
42885;DHT22;28534;48.100;11.584;2022-12-29T01:04:39;20.40;66.30
42885;DHT22;28534;48.100;11.584;2022-12-29T01:09:42;20.40;66.30
42885;DHT22;28534;48.100;11.584;2022-12-29T01:15:01;20.40;66.30
42885;DHT22;28534;48.100;11.584;2022-12-29T01:20:04;20.40;66.30
42885;DHT22;28534;48.100;11.584;2022-12-29T01:25:07;20.40;66.30
42885;DHT22;28534;48.100;11.584;2022-12-29T01:30:10;20.40;66.30
42885;DHT22;28534;48.100;11.584;2022-12-29T01:35:11;20.40;66.40
42885;DHT22;28534;48.100;11.584;2022-12-29T01:40:15;20.40;66.30
42885;DHT22;28534;48.100;11.584;2022-12-29T01:45:17;20.40;66.40
42885;DHT22;28534;48.100;11.584;2022-12-29T01:50:23;20.40;67.30
42885;DHT22;28534;48.100;11.584;2022-12-29T01:55:29;20.40;66.50
42885;DHT22;28534;48.100;11.584;2022-12-29T02:00:32;20.40;66.50
42885;DHT22;28534;48.100;11.584;2022-12-29T02:05:38;20.30;66.30
42885;DHT22;28534;48.100;11.584;2022-12-29T02:10:43;20.40;66.50
42885;DHT22;28534;48.100;11.584;2022-12-29T02:15:53;20.30;66.40
42885;DHT22;28534;48.100;11.584;2022-12-29T02:27:01;20.40;66.50
42885;DHT22;28534;48.100;11.584;2022-12-29T02:32:08;20.30;66.40
42885;DHT22;28534;48.100;11.584;2022-12-29T02:37:21;20.30;66.50
42885;DHT22;28534;48.100;11.584;2022-12-29T02:42:35;20.30;66.50
42885;DHT22;28534;48.100;11.584;2022-12-29T02:47:41;20.30;66.50
42885;DHT22;28534;48.100;11.584;2022-12-29T02:52:46;20.30;66.50
42885;DHT22;28534;48.100;11.584;2022-12-29T02:58:12;20.30;66.50
42885;DHT22;28534;48.100;11.584;2022-12-29T03:03:23;20.30;66.50
42885;DHT22;28534;48.100;11.584;2022-12-29T03:08:33;20.30;66.50
42885;DHT22;28534;48.100;11.584;2022-12-29T03:13:42;20.30;66.50
42885;DHT22;28534;48.100;11.584;2022-12-29T03:19:06;20.30;66.50
42885;DHT22;28534;48.100;11.584;2022-12-29T03:24:11;20.30;66.60
42885;DHT22;28534;48.100;11.584;2022-12-29T03:29:14;20.30;66.60
42885;DHT22;28534;48.100;11.584;2022-12-29T03:34:20;20.20;66.50
42885;DHT22;28534;48.100;11.584;2022-12-29T03:39:24;20.30;66.60
42885;DHT22;28534;48.100;11.584;2022-12-29T03:44:32;20.30;66.50
42885;DHT22;28534;48.100;11.584;2022-12-29T03:49:35;20.30;66.40
42885;DHT22;28534;48.100;11.584;2022-12-29T03:54:37;20.40;66.60
42885;DHT22;28534;48.100;11.584;2022-12-29T03:59:39;20.40;66.60
42885;DHT22;28534;48.100;11.584;2022-12-29T04:04:42;20.50;66.60
42885;DHT22;28534;48.100;11.584;2022-12-29T04:09:44;20.50;66.60
42885;DHT22;28534;48.100;11.584;2022-12-29T04:14:45;20.50;66.60
42885;DHT22;28534;48.100;11.584;2022-12-29T04:19:49;20.60;66.60
42885;DHT22;28534;48.100;11.584;2022-12-29T04:24:50;20.60;66.60
42885;DHT22;28534;48.100;11.584;2022-12-29T04:29:52;20.60;66.60
42885;DHT22;28534;48.100;11.584;2022-12-29T04:34:55;20.60;66.70
42885;DHT22;28534;48.100;11.584;2022-12-29T04:39:57;20.70;66.80
42885;DHT22;28534;48.100;11.584;2022-12-29T04:44:58;20.70;66.80
42885;DHT22;28534;48.100;11.584;2022-12-29T04:50:02;20.80;66.70
42885;DHT22;28534;48.100;11.584;2022-12-29T04:55:05;20.80;66.60
42885;DHT22;28534;48.100;11.584;2022-12-29T05:00:07;20.80;66.50
42885;DHT22;28534;48.100;11.584;2022-12-29T05:05:11;20.90;66.40
42885;DHT22;28534;48.100;11.584;2022-12-29T05:10:13;20.90;66.30
42885;DHT22;28534;48.100;11.584;2022-12-29T05:15:15;20.90;66.30
42885;DHT22;28534;48.100;11.584;2022-12-29T05:20:18;21.00;66.30
42885;DHT22;28534;48.100;11.584;2022-12-29T05:25:20;21.00;66.30
42885;DHT22;28534;48.100;11.584;2022-12-29T05:30:22;21.00;66.20
42885;DHT22;28534;48.100;11.584;2022-12-29T05:35:25;21.10;66.10
42885;DHT22;28534;48.100;11.584;2022-12-29T05:40:27;21.10;66.00
42885;DHT22;28534;48.100;11.584;2022-12-29T05:45:28;21.10;66.20
42885;DHT22;28534;48.100;11.584;2022-12-29T05:50:31;21.10;66.40
42885;DHT22;28534;48.100;11.584;2022-12-29T05:55:34;21.10;66.50
42885;DHT22;28534;48.100;11.584;2022-12-29T06:00:35;21.20;67.00
42885;DHT22;28534;48.100;11.584;2022-12-29T06:05:38;21.20;67.20
42885;DHT22;28534;48.100;11.584;2022-12-29T06:10:40;21.30;68.00
42885;DHT22;28534;48.100;11.584;2022-12-29T06:15:42;21.20;68.30
42885;DHT22;28534;48.100;11.584;2022-12-29T06:20:45;21.30;68.50
42885;DHT22;28534;48.100;11.584;2022-12-29T06:25:47;21.30;68.90
42885;DHT22;28534;48.100;11.584;2022-12-29T06:30:49;21.30;68.60
42885;DHT22;28534;48.100;11.584;2022-12-29T06:35:52;21.30;68.80
42885;DHT22;28534;48.100;11.584;2022-12-29T06:40:54;21.30;69.90
42885;DHT22;28534;48.100;11.584;2022-12-29T06:45:56;21.30;69.00
42885;DHT22;28534;48.100;11.584;2022-12-29T06:50:59;21.40;69.00
42885;DHT22;28534;48.100;11.584;2022-12-29T06:56:01;21.40;69.30
42885;DHT22;28534;48.100;11.584;2022-12-29T07:01:03;21.40;69.30
42885;DHT22;28534;48.100;11.584;2022-12-29T07:06:07;21.40;69.90
42885;DHT22;28534;48.100;11.584;2022-12-29T07:11:09;21.50;70.40
42885;DHT22;28534;48.100;11.584;2022-12-29T07:16:10;21.40;70.20
42885;DHT22;28534;48.100;11.584;2022-12-29T07:21:14;21.40;69.60
42885;DHT22;28534;48.100;11.584;2022-12-29T07:26:15;21.40;69.70
42885;DHT22;28534;48.100;11.584;2022-12-29T07:31:20;21.30;68.90
42885;DHT22;28534;48.100;11.584;2022-12-29T07:36:23;21.30;67.30
42885;DHT22;28534;48.100;11.584;2022-12-29T07:41:25;21.30;67.80
42885;DHT22;28534;48.100;11.584;2022-12-29T07:46:27;21.30;67.80
42885;DHT22;28534;48.100;11.584;2022-12-29T07:51:30;20.80;51.50
42885;DHT22;28534;48.100;11.584;2022-12-29T07:56:32;20.40;53.80
42885;DHT22;28534;48.100;11.584;2022-12-29T08:01:34;20.80;53.50
42885;DHT22;28534;48.100;11.584;2022-12-29T08:06:38;20.90;55.00
42885;DHT22;28534;48.100;11.584;2022-12-29T08:11:39;21.00;56.50
42885;DHT22;28534;48.100;11.584;2022-12-29T08:16:41;21.10;57.20
42885;DHT22;28534;48.100;11.584;2022-12-29T08:21:45;21.20;57.70
42885;DHT22;28534;48.100;11.584;2022-12-29T08:26:46;21.30;58.10
42885;DHT22;28534;48.100;11.584;2022-12-29T08:31:48;21.40;58.60
42885;DHT22;28534;48.100;11.584;2022-12-29T08:36:51;21.40;59.10
42885;DHT22;28534;48.100;11.584;2022-12-29T08:41:53;21.50;59.40
42885;DHT22;28534;48.100;11.584;2022-12-29T08:46:55;21.50;59.50
42885;DHT22;28534;48.100;11.584;2022-12-29T08:51:58;21.50;59.80
42885;DHT22;28534;48.100;11.584;2022-12-29T08:57:00;21.40;60.10
42885;DHT22;28534;48.100;11.584;2022-12-29T09:02:02;21.50;60.50
42885;DHT22;28534;48.100;11.584;2022-12-29T09:07:05;21.40;60.80
42885;DHT22;28534;48.100;11.584;2022-12-29T09:12:07;21.40;61.30
42885;DHT22;28534;48.100;11.584;2022-12-29T09:17:08;21.30;61.60
42885;DHT22;28534;48.100;11.584;2022-12-29T09:22:29;21.30;61.90
42885;DHT22;28534;48.100;11.584;2022-12-29T09:27:31;21.30;62.10
42885;DHT22;28534;48.100;11.584;2022-12-29T09:32:33;21.30;62.30
42885;DHT22;28534;48.100;11.584;2022-12-29T09:37:37;21.30;62.80
42885;DHT22;28534;48.100;11.584;2022-12-29T09:42:42;21.30;63.00
42885;DHT22;28534;48.100;11.584;2022-12-29T09:47:46;21.30;61.90
42885;DHT22;28534;48.100;11.584;2022-12-29T09:52:52;21.30;60.90
42885;DHT22;28534;48.100;11.584;2022-12-29T09:57:58;21.30;60.90
42885;DHT22;28534;48.100;11.584;2022-12-29T10:03:06;21.40;61.00
42885;DHT22;28534;48.100;11.584;2022-12-29T10:08:25;21.40;61.00
42885;DHT22;28534;48.100;11.584;2022-12-29T10:13:39;21.40;60.90
42885;DHT22;28534;48.100;11.584;2022-12-29T10:24:47;21.40;60.60
42885;DHT22;28534;48.100;11.584;2022-12-29T10:29:53;21.40;61.40
42885;DHT22;28534;48.100;11.584;2022-12-29T10:34:58;21.40;62.20
42885;DHT22;28534;48.100;11.584;2022-12-29T10:40:14;21.40;62.60
42885;DHT22;28534;48.100;11.584;2022-12-29T10:45:18;21.40;63.20
42885;DHT22;28534;48.100;11.584;2022-12-29T10:50:20;21.40;63.40
42885;DHT22;28534;48.100;11.584;2022-12-29T10:55:27;21.40;63.60
42885;DHT22;28534;48.100;11.584;2022-12-29T11:00:31;21.40;63.60
42885;DHT22;28534;48.100;11.584;2022-12-29T11:05:36;21.30;63.70
42885;DHT22;28534;48.100;11.584;2022-12-29T11:10:43;21.40;64.50
42885;DHT22;28534;48.100;11.584;2022-12-29T11:15:47;21.40;64.60
42885;DHT22;28534;48.100;11.584;2022-12-29T11:20:51;21.50;64.70
42885;DHT22;28534;48.100;11.584;2022-12-29T11:26:13;21.50;64.40
42885;DHT22;28534;48.100;11.584;2022-12-29T11:31:17;21.50;64.20
42885;DHT22;28534;48.100;11.584;2022-12-29T11:36:22;21.60;64.00
42885;DHT22;28534;48.100;11.584;2022-12-29T11:41:28;21.50;64.00
42885;DHT22;28534;48.100;11.584;2022-12-29T11:46:32;21.60;64.00
42885;DHT22;28534;48.100;11.584;2022-12-29T11:51:44;21.50;63.80
42885;DHT22;28534;48.100;11.584;2022-12-29T11:56:48;21.50;63.50
42885;DHT22;28534;48.100;11.584;2022-12-29T12:01:51;21.60;62.80
42885;DHT22;28534;48.100;11.584;2022-12-29T12:06:59;21.70;62.70
42885;DHT22;28534;48.100;11.584;2022-12-29T12:12:04;21.80;62.50
42885;DHT22;28534;48.100;11.584;2022-12-29T12:17:11;21.80;62.40
42885;DHT22;28534;48.100;11.584;2022-12-29T12:22:19;21.80;62.10
42885;DHT22;28534;48.100;11.584;2022-12-29T12:27:28;21.90;62.10
42885;DHT22;28534;48.100;11.584;2022-12-29T12:32:39;22.00;62.10
42885;DHT22;28534;48.100;11.584;2022-12-29T12:37:56;22.00;62.00
42885;DHT22;28534;48.100;11.584;2022-12-29T12:43:17;22.00;61.90
42885;DHT22;28534;48.100;11.584;2022-12-29T12:48:35;22.00;61.90
42885;DHT22;28534;48.100;11.584;2022-12-29T12:53:50;22.00;61.90
42885;DHT22;28534;48.100;11.584;2022-12-29T12:59:02;22.10;61.90
42885;DHT22;28534;48.100;11.584;2022-12-29T13:09:48;22.20;61.70
42885;DHT22;28534;48.100;11.584;2022-12-29T13:15:02;22.10;61.90
42885;DHT22;28534;48.100;11.584;2022-12-29T13:20:18;22.10;62.60
42885;DHT22;28534;48.100;11.584;2022-12-29T13:25:27;22.00;62.50
42885;DHT22;28534;48.100;11.584;2022-12-29T13:30:35;21.90;62.80
42885;DHT22;28534;48.100;11.584;2022-12-29T13:35:53;21.80;62.90
42885;DHT22;28534;48.100;11.584;2022-12-29T13:41:04;21.70;63.00
42885;DHT22;28534;48.100;11.584;2022-12-29T13:46:13;21.80;63.10
42885;DHT22;28534;48.100;11.584;2022-12-29T13:51:16;21.70;63.90
42885;DHT22;28534;48.100;11.584;2022-12-29T13:56:20;21.70;63.90
42885;DHT22;28534;48.100;11.584;2022-12-29T14:01:30;21.70;63.10
42885;DHT22;28534;48.100;11.584;2022-12-29T14:06:35;21.70;63.10
42885;DHT22;28534;48.100;11.584;2022-12-29T14:11:41;21.70;63.10
42885;DHT22;28534;48.100;11.584;2022-12-29T14:16:46;21.70;63.10
42885;DHT22;28534;48.100;11.584;2022-12-29T14:21:52;21.70;63.20
42885;DHT22;28534;48.100;11.584;2022-12-29T14:26:55;21.70;63.30
42885;DHT22;28534;48.100;11.584;2022-12-29T14:31:58;21.60;63.30
42885;DHT22;28534;48.100;11.584;2022-12-29T14:37:01;21.60;63.40
42885;DHT22;28534;48.100;11.584;2022-12-29T14:42:05;21.60;63.50
42885;DHT22;28534;48.100;11.584;2022-12-29T14:47:11;21.50;63.60
42885;DHT22;28534;48.100;11.584;2022-12-29T14:52:19;21.50;63.60
42885;DHT22;28534;48.100;11.584;2022-12-29T14:57:36;21.50;63.60
42885;DHT22;28534;48.100;11.584;2022-12-29T15:02:44;21.50;63.60
42885;DHT22;28534;48.100;11.584;2022-12-29T15:07:46;21.50;63.60
42885;DHT22;28534;48.100;11.584;2022-12-29T15:13:00;21.50;62.80
42885;DHT22;28534;48.100;11.584;2022-12-29T15:18:25;21.50;62.80
42885;DHT22;28534;48.100;11.584;2022-12-29T15:23:29;21.50;63.10
42885;DHT22;28534;48.100;11.584;2022-12-29T15:28:38;21.40;63.40
42885;DHT22;28534;48.100;11.584;2022-12-29T15:33:43;21.50;63.90
42885;DHT22;28534;48.100;11.584;2022-12-29T15:38:47;21.50;64.10
42885;DHT22;28534;48.100;11.584;2022-12-29T15:43:56;21.40;64.20
42885;DHT22;28534;48.100;11.584;2022-12-29T15:49:05;21.40;64.50
42885;DHT22;28534;48.100;11.584;2022-12-29T15:54:15;21.40;65.00
42885;DHT22;28534;48.100;11.584;2022-12-29T15:59:25;21.50;65.50
42885;DHT22;28534;48.100;11.584;2022-12-29T16:04:30;21.50;67.50
42885;DHT22;28534;48.100;11.584;2022-12-29T16:09:34;21.50;66.80
42885;DHT22;28534;48.100;11.584;2022-12-29T16:14:40;21.40;66.50
42885;DHT22;28534;48.100;11.584;2022-12-29T16:19:49;21.40;67.00
42885;DHT22;28534;48.100;11.584;2022-12-29T16:24:55;21.40;67.00
42885;DHT22;28534;48.100;11.584;2022-12-29T16:30:04;21.40;68.80
42885;DHT22;28534;48.100;11.584;2022-12-29T16:35:17;21.40;69.20
42885;DHT22;28534;48.100;11.584;2022-12-29T16:40:28;21.40;69.70
42885;DHT22;28534;48.100;11.584;2022-12-29T16:51:14;21.50;68.60
42885;DHT22;28534;48.100;11.584;2022-12-29T16:56:20;21.50;67.10
42885;DHT22;28534;48.100;11.584;2022-12-29T17:01:24;21.40;62.80
42885;DHT22;28534;48.100;11.584;2022-12-29T17:06:27;21.40;59.90
42885;DHT22;28534;48.100;11.584;2022-12-29T17:11:31;21.40;59.80
42885;DHT22;28534;48.100;11.584;2022-12-29T17:16:52;21.40;60.60
42885;DHT22;28534;48.100;11.584;2022-12-29T17:21:56;21.40;61.30
42885;DHT22;28534;48.100;11.584;2022-12-29T17:26:58;21.50;61.80
42885;DHT22;28534;48.100;11.584;2022-12-29T17:32:02;21.50;62.40
42885;DHT22;28534;48.100;11.584;2022-12-29T17:37:18;21.50;62.70
42885;DHT22;28534;48.100;11.584;2022-12-29T17:42:23;21.50;62.70
42885;DHT22;28534;48.100;11.584;2022-12-29T17:47:25;21.40;62.30
42885;DHT22;28534;48.100;11.584;2022-12-29T17:52:28;21.40;62.10
42885;DHT22;28534;48.100;11.584;2022-12-29T17:57:30;21.40;62.30
42885;DHT22;28534;48.100;11.584;2022-12-29T18:02:32;21.30;62.30
42885;DHT22;28534;48.100;11.584;2022-12-29T18:07:35;21.30;63.30
42885;DHT22;28534;48.100;11.584;2022-12-29T18:12:38;21.30;62.90
42885;DHT22;28534;48.100;11.584;2022-12-29T18:17:41;21.30;62.10
42885;DHT22;28534;48.100;11.584;2022-12-29T18:22:44;21.30;62.50
42885;DHT22;28534;48.100;11.584;2022-12-29T18:27:45;21.30;62.60
42885;DHT22;28534;48.100;11.584;2022-12-29T18:32:47;21.30;62.60
42885;DHT22;28534;48.100;11.584;2022-12-29T18:37:50;21.30;62.80
42885;DHT22;28534;48.100;11.584;2022-12-29T18:42:52;21.20;62.70
42885;DHT22;28534;48.100;11.584;2022-12-29T18:47:54;21.10;56.70
42885;DHT22;28534;48.100;11.584;2022-12-29T18:52:57;20.60;44.80
42885;DHT22;28534;48.100;11.584;2022-12-29T18:57:59;20.40;47.30
42885;DHT22;28534;48.100;11.584;2022-12-29T19:03:00;20.60;50.70
42885;DHT22;28534;48.100;11.584;2022-12-29T19:08:04;20.70;51.70
42885;DHT22;28534;48.100;11.584;2022-12-29T19:13:06;20.80;52.80
42885;DHT22;28534;48.100;11.584;2022-12-29T19:18:14;20.80;53.70
42885;DHT22;28534;48.100;11.584;2022-12-29T19:23:20;20.80;54.20
42885;DHT22;28534;48.100;11.584;2022-12-29T19:28:24;20.80;54.70
42885;DHT22;28534;48.100;11.584;2022-12-29T19:33:27;20.80;55.20
42885;DHT22;28534;48.100;11.584;2022-12-29T19:38:30;20.90;55.70
42885;DHT22;28534;48.100;11.584;2022-12-29T19:43:31;20.90;56.20
42885;DHT22;28534;48.100;11.584;2022-12-29T19:48:34;20.90;56.40
42885;DHT22;28534;48.100;11.584;2022-12-29T19:53:37;20.80;56.90
42885;DHT22;28534;48.100;11.584;2022-12-29T19:58:39;20.80;57.20
42885;DHT22;28534;48.100;11.584;2022-12-29T20:03:41;20.80;57.80
42885;DHT22;28534;48.100;11.584;2022-12-29T20:08:44;20.80;58.00
42885;DHT22;28534;48.100;11.584;2022-12-29T20:13:46;20.80;59.60
42885;DHT22;28534;48.100;11.584;2022-12-29T20:18:48;20.80;59.40
42885;DHT22;28534;48.100;11.584;2022-12-29T20:23:52;20.70;59.60
42885;DHT22;28534;48.100;11.584;2022-12-29T20:28:54;20.70;59.40
42885;DHT22;28534;48.100;11.584;2022-12-29T20:33:57;20.80;59.30
42885;DHT22;28534;48.100;11.584;2022-12-29T20:39:03;20.80;59.30
42885;DHT22;28534;48.100;11.584;2022-12-29T20:44:05;20.80;59.30
42885;DHT22;28534;48.100;11.584;2022-12-29T20:49:07;20.80;59.40
42885;DHT22;28534;48.100;11.584;2022-12-29T20:54:11;20.80;59.50
42885;DHT22;28534;48.100;11.584;2022-12-29T20:59:13;20.80;59.60
42885;DHT22;28534;48.100;11.584;2022-12-29T21:04:15;20.80;59.60
42885;DHT22;28534;48.100;11.584;2022-12-29T21:09:18;20.70;59.60
42885;DHT22;28534;48.100;11.584;2022-12-29T21:14:20;20.70;59.70
42885;DHT22;28534;48.100;11.584;2022-12-29T21:19:22;20.70;59.70
42885;DHT22;28534;48.100;11.584;2022-12-29T21:24:25;20.70;59.80
42885;DHT22;28534;48.100;11.584;2022-12-29T21:29:27;20.70;59.90
42885;DHT22;28534;48.100;11.584;2022-12-29T21:34:29;20.70;60.00
42885;DHT22;28534;48.100;11.584;2022-12-29T21:39:33;20.70;60.00
42885;DHT22;28534;48.100;11.584;2022-12-29T21:44:34;20.70;60.10
42885;DHT22;28534;48.100;11.584;2022-12-29T21:49:54;20.70;60.10
42885;DHT22;28534;48.100;11.584;2022-12-29T21:54:57;20.70;60.20
42885;DHT22;28534;48.100;11.584;2022-12-29T22:00:02;20.70;60.20
42885;DHT22;28534;48.100;11.584;2022-12-29T22:05:22;20.70;60.40
42885;DHT22;28534;48.100;11.584;2022-12-29T22:10:44;20.70;60.40
42885;DHT22;28534;48.100;11.584;2022-12-29T22:16:04;20.70;60.50
42885;DHT22;28534;48.100;11.584;2022-12-29T22:21:10;20.70;60.70
42885;DHT22;28534;48.100;11.584;2022-12-29T22:26:14;20.70;60.80
42885;DHT22;28534;48.100;11.584;2022-12-29T22:31:22;20.70;60.80
42885;DHT22;28534;48.100;11.584;2022-12-29T22:36:27;20.70;61.00
42885;DHT22;28534;48.100;11.584;2022-12-29T22:41:31;20.70;61.00
42885;DHT22;28534;48.100;11.584;2022-12-29T22:46:33;20.70;61.10
42885;DHT22;28534;48.100;11.584;2022-12-29T22:51:34;20.70;61.40
42885;DHT22;28534;48.100;11.584;2022-12-29T22:56:37;20.70;61.50
42885;DHT22;28534;48.100;11.584;2022-12-29T23:01:41;20.60;61.50
42885;DHT22;28534;48.100;11.584;2022-12-29T23:06:43;20.70;61.70
42885;DHT22;28534;48.100;11.584;2022-12-29T23:11:46;20.60;61.70
42885;DHT22;28534;48.100;11.584;2022-12-29T23:16:48;20.60;61.80
42885;DHT22;28534;48.100;11.584;2022-12-29T23:21:50;20.60;61.90
42885;DHT22;28534;48.100;11.584;2022-12-29T23:27:00;20.60;61.90
42885;DHT22;28534;48.100;11.584;2022-12-29T23:32:02;20.60;62.00
42885;DHT22;28534;48.100;11.584;2022-12-29T23:37:04;20.60;62.10
42885;DHT22;28534;48.100;11.584;2022-12-29T23:42:07;20.60;62.10
42885;DHT22;28534;48.100;11.584;2022-12-29T23:47:10;20.60;62.30
42885;DHT22;28534;48.100;11.584;2022-12-29T23:52:13;20.60;62.40
42885;DHT22;28534;48.100;11.584;2022-12-29T23:57:16;20.60;62.50
